createdAt,value
2023-01-03T00:02:15.824Z,6.20
2023-01-03T00:04:48.979Z,6.40
2023-01-03T00:07:32.789Z,4.82
2023-01-03T00:10:05.781Z,4.90
2023-01-03T00:12:32.116Z,4.72
2023-01-03T00:14:59.558Z,4.35
2023-01-03T00:17:26.843Z,4.30
2023-01-03T00:19:54.220Z,3.88
2023-01-03T00:22:20.940Z,3.78
2023-01-03T00:24:48.913Z,3.88
2023-01-03T00:27:15.922Z,3.88
2023-01-03T00:29:42.812Z,4.32
2023-01-03T00:32:09.540Z,4.25
2023-01-03T00:34:36.453Z,3.85
2023-01-03T00:37:03.435Z,4.07
2023-01-03T00:39:30.155Z,4.78
2023-01-03T00:41:56.624Z,4.47
2023-01-03T00:44:23.471Z,3.45
2023-01-03T00:46:49.871Z,3.83
2023-01-03T00:49:16.463Z,4.22
2023-01-03T00:51:43.589Z,3.95
2023-01-03T00:54:12.181Z,3.65
2023-01-03T00:56:41.822Z,3.65
2023-01-03T00:59:09.918Z,3.42
2023-01-03T01:01:46.658Z,3.45
2023-01-03T01:04:29.060Z,3.63
2023-01-03T01:06:58.205Z,3.25
2023-01-03T01:09:30.604Z,3.20
2023-01-03T01:11:57.400Z,2.90
2023-01-03T01:14:27.408Z,2.78
2023-01-03T01:16:54.987Z,2.53
2023-01-03T01:19:28.146Z,3.10
2023-01-03T01:21:54.635Z,2.38
2023-01-03T01:24:21.681Z,2.58
2023-01-03T01:26:48.522Z,3.38
2023-01-03T01:29:16.196Z,2.83
2023-01-03T01:31:43.770Z,2.20
2023-01-03T01:34:11.038Z,2.45
2023-01-03T01:36:41.139Z,2.42
2023-01-03T01:39:21.415Z,2.83
2023-01-03T01:42:08.696Z,2.85
2023-01-03T01:44:54.029Z,2.70
2023-01-03T01:47:30.284Z,2.35
2023-01-03T01:50:23.024Z,2.35
2023-01-03T01:53:24.493Z,3.03
2023-01-03T01:55:56.865Z,3.05
2023-01-03T01:58:27.116Z,2.40
2023-01-03T02:00:54.239Z,2.65
2023-01-03T02:03:20.626Z,2.40
2023-01-03T02:05:51.678Z,2.53
2023-01-03T02:08:18.614Z,2.10
2023-01-03T02:11:08.260Z,2.05
2023-01-03T02:14:13.432Z,1.98
2023-01-03T02:16:47.553Z,2.88
2023-01-03T02:19:25.873Z,2.35
2023-01-03T02:22:04.182Z,2.45
2023-01-03T02:24:54.758Z,1.67
2023-01-03T02:27:30.442Z,2.25
2023-01-03T02:30:24.920Z,2.63
2023-01-03T02:33:25.203Z,1.90
2023-01-03T02:36:06.949Z,1.30
2023-01-03T02:39:23.872Z,1.63
2023-01-03T02:42:31.953Z,1.70
2023-01-03T02:45:05.062Z,1.60
2023-01-03T02:47:40.755Z,1.23
2023-01-03T02:50:10.294Z,1.23
2023-01-03T02:52:38.976Z,1.35
2023-01-03T02:55:15.505Z,1.27
2023-01-03T02:57:49.519Z,2.08
2023-01-03T03:00:20.495Z,1.90
2023-01-03T03:02:51.803Z,1.73
2023-01-03T03:05:27.623Z,1.70
2023-01-03T03:07:53.886Z,2.05
2023-01-03T03:10:39.848Z,1.10
2023-01-03T03:13:46.587Z,1.20
2023-01-03T03:16:43.677Z,1.20
2023-01-03T03:19:49.446Z,1.10
2023-01-03T03:22:37.454Z,1.08
2023-01-03T03:25:11.765Z,1.38
2023-01-03T03:28:01.070Z,1.23
2023-01-03T03:30:30.040Z,1.17
2023-01-03T03:33:04.807Z,1.10
2023-01-03T03:35:36.234Z,0.80
2023-01-03T03:38:06.524Z,0.73
2023-01-03T03:40:58.121Z,0.77
2023-01-03T03:43:54.782Z,0.60
2023-01-03T03:46:27.272Z,0.52
2023-01-03T03:49:15.706Z,0.60
2023-01-03T03:51:44.157Z,1.15
2023-01-03T03:54:14.741Z,1.13
2023-01-03T03:56:45.921Z,1.05
2023-01-03T03:59:15.153Z,0.90
2023-01-03T04:01:42.650Z,0.80
2023-01-03T04:04:18.128Z,1.00
2023-01-03T04:06:48.033Z,1.05
2023-01-03T04:09:15.859Z,1.35
2023-01-03T04:11:42.197Z,1.45
2023-01-03T04:14:09.066Z,1.70
2023-01-03T04:16:36.917Z,1.65
2023-01-03T04:19:04.266Z,1.60
2023-01-03T04:21:30.531Z,1.00
2023-01-03T04:23:57.141Z,1.08
2023-01-03T04:26:23.427Z,1.08
2023-01-03T04:28:50.200Z,0.80
2023-01-03T04:31:16.479Z,0.80
2023-01-03T04:33:43.045Z,1.00
2023-01-03T04:36:09.440Z,0.93
2023-01-03T04:38:36.788Z,0.52
2023-01-03T04:41:07.071Z,0.50
2023-01-03T04:43:52.542Z,1.30
2023-01-03T04:46:19.043Z,0.80
2023-01-03T04:48:45.674Z,1.15
2023-01-03T04:51:11.991Z,0.90
2023-01-03T04:53:38.873Z,1.33
2023-01-03T04:56:05.421Z,1.38
2023-01-03T04:58:32.260Z,1.20
2023-01-03T05:01:00.888Z,1.80
2023-01-03T05:03:28.885Z,1.80
2023-01-03T05:05:59.745Z,1.80
2023-01-03T05:08:26.430Z,2.08
2023-01-03T05:10:53.287Z,1.92
2023-01-03T05:13:20.007Z,2.38
2023-01-03T05:15:46.291Z,1.90
2023-01-03T05:18:13.247Z,2.20
2023-01-03T05:20:58.116Z,1.83
2023-01-03T05:23:43.158Z,2.55
2023-01-03T05:26:18.712Z,2.30
2023-01-03T05:28:50.010Z,2.13
2023-01-03T05:31:16.472Z,2.35
2023-01-03T05:33:43.104Z,2.47
2023-01-03T05:36:09.720Z,2.80
2023-01-03T05:38:37.341Z,3.30
2023-01-03T05:41:04.353Z,3.67
2023-01-03T05:43:31.363Z,4.03
2023-01-03T05:45:57.694Z,4.40
2023-01-03T05:48:24.352Z,3.80
2023-01-03T05:50:51.466Z,3.80
2023-01-03T05:53:18.149Z,4.22
2023-01-03T05:55:44.467Z,4.07
2023-01-03T05:58:12.051Z,3.88
2023-01-03T06:00:38.726Z,4.20
2023-01-03T06:03:05.515Z,3.90
2023-01-03T06:05:31.917Z,4.80
2023-01-03T06:08:01.995Z,4.70
2023-01-03T06:10:28.816Z,5.35
2023-01-03T06:12:56.279Z,4.93
2023-01-03T06:15:22.730Z,5.75
2023-01-03T06:17:57.027Z,5.10
2023-01-03T06:20:24.900Z,5.50
2023-01-03T06:22:53.147Z,4.70
2023-01-03T06:25:19.863Z,4.97
2023-01-03T06:27:46.741Z,5.00
2023-01-03T06:30:15.001Z,4.78
2023-01-03T06:32:42.582Z,3.95
2023-01-03T06:35:09.126Z,4.03
2023-01-03T06:37:36.040Z,4.00
2023-01-03T06:40:03.109Z,3.00
2023-01-03T06:42:44.480Z,3.72
2023-01-03T06:45:32.594Z,2.50
2023-01-03T06:48:23.087Z,3.20
2023-01-03T06:51:09.101Z,4.53
2023-01-03T06:53:37.845Z,3.05
2023-01-03T06:56:05.517Z,3.40
2023-01-03T06:58:32.335Z,2.97
2023-01-03T07:01:03.900Z,3.53
2023-01-03T07:03:31.544Z,3.42
2023-01-03T07:05:58.587Z,2.92
2023-01-03T07:08:24.867Z,3.28
2023-01-03T07:10:51.751Z,3.60
2023-01-03T07:13:36.777Z,4.45
2023-01-03T07:16:03.550Z,4.15
2023-01-03T07:18:31.140Z,3.47
2023-01-03T07:20:57.833Z,3.28
2023-01-03T07:23:24.272Z,3.75
2023-01-03T07:25:54.528Z,4.22
2023-01-03T07:28:20.817Z,3.30
2023-01-03T07:30:47.495Z,3.80
2023-01-03T07:33:15.932Z,4.38
2023-01-03T07:35:43.083Z,1.73
2023-01-03T07:38:11.604Z,0.80
2023-01-03T07:40:38.795Z,0.60
2023-01-03T07:43:24.056Z,0.75
2023-01-03T07:45:50.878Z,0.93
2023-01-03T07:48:17.217Z,1.00
2023-01-03T07:50:43.848Z,1.20
2023-01-03T07:53:15.877Z,1.08
2023-01-03T07:55:44.672Z,0.80
2023-01-03T07:58:11.068Z,0.73
2023-01-03T08:00:38.159Z,1.00
2023-01-03T08:03:08.933Z,0.57
2023-01-03T08:08:05.368Z,0.65
2023-01-03T08:10:50.547Z,0.45
2023-01-03T08:13:16.950Z,1.15
2023-01-03T08:15:54.983Z,0.60
2023-01-03T08:18:23.792Z,0.63
2023-01-03T08:20:53.042Z,0.65
2023-01-03T08:23:19.440Z,1.50
2023-01-03T08:25:46.151Z,0.80
2023-01-03T08:28:12.720Z,0.68
2023-01-03T08:30:46.125Z,0.80
2023-01-03T08:33:15.200Z,0.80
2023-01-03T08:35:47.166Z,0.60
2023-01-03T08:38:17.515Z,0.70
2023-01-03T08:40:45.686Z,0.75
2023-01-03T08:43:13.431Z,0.93
2023-01-03T08:45:40.458Z,0.80
2023-01-03T08:48:09.335Z,0.70
2023-01-03T08:50:36.875Z,0.70
2023-01-03T08:53:05.081Z,3.17
2023-01-03T08:55:32.555Z,1.50
2023-01-03T08:57:59.539Z,1.20
2023-01-03T09:00:27.607Z,1.77
2023-01-03T09:02:56.794Z,1.55
2023-01-03T09:05:23.952Z,1.00
2023-01-03T09:07:50.275Z,1.20
2023-01-03T09:10:16.868Z,2.47
2023-01-03T09:12:43.170Z,1.42
2023-01-03T09:15:10.319Z,1.45
2023-01-03T09:17:36.880Z,1.02
2023-01-03T09:20:03.900Z,0.98
2023-01-03T09:22:30.171Z,1.08
2023-01-03T09:24:56.732Z,1.13
2023-01-03T09:27:23.028Z,1.55
2023-01-03T09:29:49.860Z,1.88
2023-01-03T09:32:16.258Z,1.85
2023-01-03T09:34:42.997Z,2.47
2023-01-03T09:37:09.355Z,2.85
2023-01-03T09:39:36.299Z,2.40
2023-01-03T09:42:23.060Z,1.55
2023-01-03T09:44:49.605Z,2.30
2023-01-03T09:47:23.689Z,1.65
2023-01-03T09:50:26.740Z,1.20
2023-01-03T09:53:02.169Z,2.28
2023-01-03T09:56:03.481Z,2.17
2023-01-03T09:58:49.410Z,3.85
2023-01-03T10:01:51.973Z,1.83
2023-01-03T10:04:21.072Z,3.40
2023-01-03T10:07:00.955Z,2.53
2023-01-03T10:09:38.699Z,1.60
2023-01-03T10:12:24.408Z,2.20
2023-01-03T10:15:28.753Z,1.65
2023-01-03T10:18:15.918Z,2.20
2023-01-03T10:20:42.174Z,1.80
2023-01-03T10:23:10.631Z,1.83
2023-01-03T10:25:40.499Z,1.60
2023-01-03T10:28:20.716Z,1.50
2023-01-03T10:31:03.755Z,1.27
2023-01-03T10:33:37.582Z,1.55
2023-01-03T10:36:04.175Z,1.80
2023-01-03T10:38:31.861Z,1.40
2023-01-03T10:41:03.024Z,1.55
2023-01-03T10:43:38.326Z,1.70
2023-01-03T10:46:12.801Z,1.27
2023-01-03T10:51:40.258Z,0.98
2023-01-03T10:54:45.979Z,0.90
2023-01-03T10:57:49.720Z,0.90
2023-01-03T11:00:31.874Z,1.58
2023-01-03T11:03:10.953Z,1.48
2023-01-03T11:05:40.579Z,1.27
2023-01-03T11:08:16.233Z,2.33
2023-01-03T11:11:27.325Z,1.58
2023-01-03T11:14:10.520Z,1.55
2023-01-03T11:16:37.583Z,1.38
2023-01-03T11:19:05.924Z,1.58
2023-01-03T11:21:38.713Z,2.15
2023-01-03T11:24:28.329Z,1.67
2023-01-03T11:27:07.170Z,1.55
2023-01-03T11:30:08.003Z,1.38
2023-01-03T11:32:44.571Z,2.22
2023-01-03T11:35:32.171Z,1.77
2023-01-03T11:38:13.834Z,1.63
2023-01-03T11:40:58.609Z,2.22
2023-01-03T11:43:35.058Z,1.65
2023-01-03T11:46:10.511Z,1.92
2023-01-03T11:48:40.121Z,1.48
2023-01-03T11:51:28.176Z,1.98
2023-01-03T11:54:06.549Z,2.70
2023-01-03T11:56:46.874Z,3.42
2023-01-03T11:59:51.793Z,1.73
2023-01-03T12:02:42.658Z,1.58
2023-01-03T12:05:09.548Z,2.00
2023-01-03T12:08:37.197Z,2.03
2023-01-03T12:11:16.475Z,1.30
2023-01-03T12:14:23.638Z,0.95
2023-01-03T12:16:57.962Z,1.13
2023-01-03T12:19:48.224Z,1.20
2023-01-03T12:22:30.044Z,1.10
2023-01-03T12:25:22.069Z,1.33
2023-01-03T12:27:55.990Z,0.90
2023-01-03T12:30:33.963Z,0.90
2023-01-03T12:33:24.161Z,1.60
2023-01-03T12:36:04.976Z,1.23
2023-01-03T12:38:49.612Z,1.08
2023-01-03T12:41:44.166Z,1.23
2023-01-03T12:44:29.509Z,1.13
2023-01-03T12:46:56.679Z,2.55
2023-01-03T12:49:34.105Z,1.52
2023-01-03T12:52:00.461Z,3.83
2023-01-03T12:54:37.888Z,4.18
2023-01-03T12:57:26.398Z,1.83
2023-01-03T13:00:30.138Z,2.72
2023-01-03T13:03:22.059Z,3.90
2023-01-03T13:05:59.788Z,2.40
2023-01-03T13:08:45.578Z,2.40
2023-01-03T13:11:41.898Z,2.15
2023-01-03T13:15:09.576Z,2.47
2023-01-03T13:17:49.339Z,1.33
2023-01-03T13:20:30.826Z,1.52
2023-01-03T13:23:07.468Z,1.13
2023-01-03T13:25:36.433Z,0.80
2023-01-03T13:28:21.272Z,1.02
2023-01-03T13:30:48.138Z,1.52
2023-01-03T13:33:20.591Z,1.52
2023-01-03T13:35:46.835Z,1.95
2023-01-03T13:38:29.929Z,0.93
2023-01-03T13:41:19.531Z,2.15
2023-01-03T13:43:51.931Z,3.03
2023-01-03T13:46:28.419Z,1.63
2023-01-03T13:49:00.960Z,2.08
2023-01-03T13:51:33.686Z,2.13
2023-01-03T13:54:23.408Z,1.70
2023-01-03T13:56:49.672Z,1.65
2023-01-03T13:59:28.199Z,2.10
2023-01-03T14:02:00.579Z,1.30
2023-01-03T14:04:32.952Z,1.45
2023-01-03T14:07:18.087Z,2.83
2023-01-03T14:10:06.968Z,2.55
2023-01-03T14:13:10.061Z,2.13
2023-01-03T14:15:36.738Z,1.92
2023-01-03T14:18:25.135Z,2.20
2023-01-03T14:20:56.258Z,1.90
2023-01-03T14:23:59.075Z,1.40
2023-01-03T14:26:16.428Z,1.25
2023-01-03T14:28:50.957Z,1.50
2023-01-03T14:31:21.259Z,1.20
2023-01-03T14:33:59.662Z,1.08
2023-01-03T14:36:27.127Z,1.10
2023-01-03T14:38:58.619Z,1.33
2023-01-03T14:41:37.149Z,1.02
2023-01-03T14:44:10.102Z,1.63
2023-01-03T14:46:38.373Z,1.40
2023-01-03T14:49:15.658Z,1.40
2023-01-03T14:51:42.526Z,0.93
2023-01-03T14:54:15.804Z,5.47
2023-01-03T14:56:45.131Z,2.22
2023-01-03T14:59:15.754Z,2.15
2023-01-03T15:01:43.753Z,1.50
2023-01-03T15:04:15.221Z,1.42
2023-01-03T15:07:03.475Z,1.67
2023-01-03T15:09:35.130Z,1.70
2023-01-03T15:12:04.285Z,2.05
2023-01-03T15:14:34.708Z,2.50
2023-01-03T15:17:12.475Z,1.90
2023-01-03T15:19:45.661Z,1.35
2023-01-03T15:22:20.780Z,1.60
2023-01-03T15:24:51.588Z,1.60
2023-01-03T15:27:42.703Z,3.30
2023-01-03T15:30:16.845Z,4.38
2023-01-03T15:33:04.206Z,3.97
2023-01-03T15:35:33.269Z,3.13
2023-01-03T15:38:01.766Z,2.88
2023-01-03T15:40:30.153Z,4.00
2023-01-03T15:43:21.005Z,3.38
2023-01-03T15:46:10.368Z,4.47
2023-01-03T15:48:37.103Z,5.57
2023-01-03T15:51:05.075Z,6.70
2023-01-03T15:53:37.787Z,6.30
2023-01-03T15:56:18.473Z,4.45
2023-01-03T15:58:47.089Z,5.97
2023-01-03T16:01:13.825Z,7.40
2023-01-03T16:03:40.680Z,14.25
2023-01-03T16:06:08.196Z,18.30
2023-01-03T16:08:40.175Z,14.73
2023-01-03T16:11:16.759Z,9.80
2023-01-03T16:13:51.155Z,9.90
2023-01-03T16:16:22.815Z,9.55
2023-01-03T16:18:50.442Z,11.17
2023-01-03T16:21:17.124Z,9.55
2023-01-03T16:23:43.743Z,8.88
2023-01-03T16:26:10.147Z,11.02
2023-01-03T16:28:36.929Z,11.13
2023-01-03T16:31:14.569Z,11.95
2023-01-03T16:33:42.597Z,6.32
2023-01-03T16:36:32.530Z,4.47
2023-01-03T16:39:00.102Z,4.50
2023-01-03T16:41:26.855Z,4.82
2023-01-03T16:43:53.698Z,4.47
2023-01-03T16:46:25.538Z,6.72
2023-01-03T16:48:54.781Z,7.80
2023-01-03T16:51:34.594Z,6.18
2023-01-03T16:54:03.396Z,5.22
2023-01-03T16:56:30.154Z,6.28
2023-01-03T16:58:57.007Z,6.13
2023-01-03T17:01:23.382Z,6.53
2023-01-03T17:03:50.426Z,11.05
2023-01-03T17:06:37.051Z,10.35
2023-01-03T17:09:30.729Z,6.72
2023-01-03T17:11:57.397Z,4.95
2023-01-03T17:14:25.400Z,7.40
2023-01-03T17:16:51.748Z,6.50
2023-01-03T17:22:14.316Z,7.43
2023-01-03T17:24:41.353Z,7.43
2023-01-03T17:27:16.917Z,6.93
2023-01-03T17:29:44.352Z,7.75
2023-01-03T17:32:17.626Z,7.03
2023-01-03T17:34:44.728Z,7.00
2023-01-03T17:37:16.417Z,6.57
2023-01-03T17:39:44.317Z,8.17
2023-01-03T17:42:18.125Z,7.97
2023-01-03T17:45:06.136Z,8.35
2023-01-03T17:47:55.233Z,7.30
2023-01-03T17:50:22.582Z,8.27
2023-01-03T17:52:53.718Z,10.13
2023-01-03T17:55:25.524Z,7.53
2023-01-03T17:57:52.811Z,7.30
2023-01-03T18:00:23.693Z,7.97
2023-01-03T18:02:51.161Z,8.85
2023-01-03T18:05:27.477Z,8.63
2023-01-03T18:07:56.395Z,7.82
2023-01-03T18:10:46.876Z,6.65
2023-01-03T18:13:33.707Z,8.38
2023-01-03T18:16:00.639Z,8.73
2023-01-03T18:18:27.923Z,8.48
2023-01-03T18:20:55.232Z,9.15
2023-01-03T18:23:32.395Z,8.85
2023-01-03T18:26:09.114Z,8.15
2023-01-03T18:28:35.459Z,7.53
2023-01-03T18:31:02.412Z,11.82
2023-01-03T18:33:28.774Z,13.68
2023-01-03T18:35:55.443Z,16.90
2023-01-03T18:38:27.525Z,17.50
2023-01-03T18:41:02.246Z,15.52
2023-01-03T18:43:31.202Z,11.52
2023-01-03T18:45:58.097Z,11.63
2023-01-03T18:48:24.583Z,11.13
2023-01-03T18:50:58.354Z,10.10
2023-01-03T18:53:30.403Z,11.00
2023-01-03T18:55:57.184Z,10.45
2023-01-03T18:58:28.996Z,10.00
2023-01-03T19:00:55.610Z,8.65
2023-01-03T19:03:24.520Z,8.23
2023-01-03T19:05:54.555Z,6.78
2023-01-03T19:08:22.942Z,8.05
2023-01-03T19:10:50.300Z,6.40
2023-01-03T19:13:49.300Z,6.95
2023-01-03T19:16:18.633Z,6.15
2023-01-03T19:18:45.322Z,6.10
2023-01-03T19:21:13.601Z,6.50
2023-01-03T19:23:41.804Z,7.22
2023-01-03T19:26:39.329Z,6.50
2023-01-03T19:29:09.914Z,6.60
2023-01-03T19:31:42.361Z,8.40
2023-01-03T19:34:25.106Z,7.80
2023-01-03T19:36:52.124Z,8.15
2023-01-03T19:39:24.753Z,8.00
2023-01-03T19:42:14.105Z,6.80
2023-01-03T19:44:41.217Z,6.82
2023-01-03T19:47:16.593Z,7.00
2023-01-03T19:49:46.553Z,7.40
2023-01-03T19:52:14.394Z,7.78
2023-01-03T19:54:40.920Z,7.05
2023-01-03T19:57:21.758Z,6.93
2023-01-03T19:59:54.406Z,7.97
2023-01-03T20:02:36.987Z,7.35
2023-01-03T20:05:13.830Z,8.13
2023-01-03T20:07:40.620Z,9.27
2023-01-03T20:10:08.580Z,8.13
2023-01-03T20:12:35.281Z,7.95
2023-01-03T20:15:06.812Z,8.00
2023-01-03T20:17:34.230Z,8.98
2023-01-03T20:20:00.528Z,9.15
2023-01-03T20:25:24.501Z,8.30
2023-01-03T20:27:52.402Z,8.20
2023-01-03T20:30:21.482Z,10.02
2023-01-03T20:32:48.113Z,8.82
2023-01-03T20:36:07.112Z,9.70
2023-01-03T20:38:06.393Z,8.30
2023-01-03T20:40:32.931Z,8.68
2023-01-03T20:43:01.401Z,8.02
2023-01-03T20:45:27.805Z,8.45
2023-01-03T20:47:54.665Z,8.70
2023-01-03T20:50:26.948Z,8.57
2023-01-03T20:52:54.552Z,8.82
2023-01-03T20:55:23.187Z,9.02
2023-01-03T20:57:49.975Z,9.60
2023-01-03T21:00:16.449Z,10.40
2023-01-03T21:02:43.324Z,10.18
2023-01-03T21:05:09.810Z,10.15
2023-01-03T21:07:54.786Z,9.48
2023-01-03T21:10:24.429Z,8.98
2023-01-03T21:12:51.024Z,10.80
2023-01-03T21:15:17.490Z,10.68
2023-01-03T21:17:50.636Z,10.45
2023-01-03T21:22:49.675Z,9.57
2023-01-03T21:25:21.470Z,10.20
2023-01-03T21:27:48.755Z,10.55
2023-01-03T21:30:17.417Z,10.70
2023-01-03T21:32:44.733Z,11.18
2023-01-03T21:35:13.640Z,10.95
2023-01-03T21:37:40.419Z,10.40
2023-01-03T21:40:14.142Z,11.40
2023-01-03T21:43:03.674Z,10.55
2023-01-03T21:45:43.217Z,12.13
2023-01-03T21:48:15.066Z,10.93
2023-01-03T21:50:46.283Z,9.55
2023-01-03T21:53:15.279Z,11.20
2023-01-03T21:55:41.611Z,12.95
2023-01-03T21:58:15.149Z,11.07
2023-01-03T22:00:41.871Z,12.00
2023-01-03T22:03:34.963Z,12.20
2023-01-03T22:06:06.484Z,11.97
2023-01-03T22:08:33.722Z,12.25
2023-01-03T22:11:00.061Z,11.43
2023-01-03T22:13:26.835Z,11.40
2023-01-03T22:15:53.335Z,12.55
2023-01-03T22:18:20.028Z,12.55
2023-01-03T22:20:46.456Z,12.32
2023-01-03T22:23:13.436Z,12.50
2023-01-03T22:25:39.862Z,12.10
2023-01-03T22:28:06.715Z,12.45
2023-01-03T22:30:32.997Z,12.00
2023-01-03T22:33:00.097Z,11.75
2023-01-03T22:35:26.401Z,12.02
2023-01-03T22:37:55.801Z,10.23
2023-01-03T22:40:22.353Z,11.75
2023-01-03T22:42:48.867Z,11.07
2023-01-03T22:45:15.222Z,12.45
2023-01-03T22:47:42.152Z,12.43
2023-01-03T22:50:09.941Z,14.25
2023-01-03T22:52:38.898Z,12.00
2023-01-03T22:55:06.827Z,12.18
2023-01-03T22:57:33.591Z,12.40
2023-01-03T22:59:59.925Z,11.18
2023-01-03T23:02:29.349Z,11.90
2023-01-03T23:04:56.159Z,13.05
2023-01-03T23:07:22.681Z,11.18
2023-01-03T23:09:49.015Z,13.15
2023-01-03T23:12:34.617Z,14.55
2023-01-03T23:15:01.146Z,13.98
2023-01-03T23:17:46.327Z,15.40
2023-01-03T23:20:12.608Z,14.80
2023-01-03T23:22:39.440Z,16.33
2023-01-03T23:25:06.081Z,14.65
2023-01-03T23:27:32.697Z,14.13
2023-01-03T23:29:59.067Z,14.15
2023-01-03T23:32:25.696Z,13.63
2023-01-03T23:34:52.009Z,14.13
2023-01-03T23:37:18.521Z,14.30
2023-01-03T23:39:44.798Z,14.75
2023-01-03T23:42:11.375Z,13.38
2023-01-03T23:44:37.683Z,13.57
2023-01-03T23:47:11.055Z,13.80
2023-01-03T23:49:38.279Z,12.13
2023-01-03T23:52:04.826Z,14.00
2023-01-03T23:54:31.758Z,12.32
2023-01-03T23:56:58.293Z,13.73
2023-01-03T23:59:24.647Z,14.95
